createdAt,value
2017-11-27T00:00:05.294Z,3.30
2017-11-27T00:02:33.333Z,3.30
2017-11-27T00:05:02.169Z,3.30
2017-11-27T00:07:30.184Z,3.30
2017-11-27T00:09:58.203Z,3.40
2017-11-27T00:12:27.010Z,3.40
2017-11-27T00:14:55.810Z,3.30
2017-11-27T00:17:24.604Z,3.40
2017-11-27T00:19:53.435Z,3.30
2017-11-27T00:22:29.002Z,3.30
2017-11-27T00:24:57.018Z,3.30
2017-11-27T00:27:25.045Z,3.30
2017-11-27T00:29:53.824Z,3.30
2017-11-27T00:32:22.044Z,3.20
2017-11-27T00:34:50.065Z,3.40
2017-11-27T00:37:18.079Z,3.30
2017-11-27T00:39:46.119Z,3.30
2017-11-27T00:42:14.132Z,3.40
2017-11-27T00:44:42.169Z,3.40
2017-11-27T00:47:10.196Z,3.40
2017-11-27T00:49:38.237Z,3.40
2017-11-27T00:52:06.243Z,3.40
2017-11-27T00:54:34.308Z,3.40
2017-11-27T00:57:03.064Z,3.40
2017-11-27T00:59:31.137Z,3.30
2017-11-27T01:01:59.149Z,3.40
2017-11-27T01:04:27.936Z,3.40
2017-11-27T01:06:55.973Z,3.30
2017-11-27T01:09:23.980Z,3.30
2017-11-27T01:11:52.048Z,3.30
2017-11-27T01:14:20.073Z,3.40
2017-11-27T01:16:48.859Z,3.40
2017-11-27T01:19:16.885Z,3.30
2017-11-27T01:21:44.904Z,3.30
2017-11-27T01:24:12.939Z,3.40
2017-11-27T01:26:41.712Z,3.40
2017-11-27T01:29:09.762Z,3.30
2017-11-27T01:31:37.746Z,3.30
2017-11-27T01:34:05.734Z,3.40
2017-11-27T01:36:33.750Z,3.40
2017-11-27T01:39:02.520Z,3.40
2017-11-27T01:41:30.502Z,3.30
2017-11-27T01:43:58.520Z,3.40
2017-11-27T01:46:27.268Z,3.40
2017-11-27T01:48:55.249Z,3.40
2017-11-27T01:51:23.261Z,3.50
2017-11-27T01:53:51.246Z,3.50
2017-11-27T01:56:19.231Z,3.50
2017-11-27T01:58:48.786Z,3.40
2017-11-27T02:01:16.753Z,3.40
2017-11-27T02:03:45.506Z,3.50
2017-11-27T02:06:13.538Z,3.40
2017-11-27T02:08:42.289Z,3.40
2017-11-27T02:11:10.277Z,3.40
2017-11-27T02:13:38.306Z,3.50
2017-11-27T02:16:07.049Z,3.50
2017-11-27T02:18:35.050Z,3.40
2017-11-27T02:21:03.064Z,3.50
2017-11-27T02:23:31.827Z,3.50
2017-11-27T02:25:59.824Z,3.40
2017-11-27T02:28:27.840Z,3.50
2017-11-27T02:30:55.838Z,3.50
2017-11-27T02:33:23.817Z,3.60
2017-11-27T02:35:51.838Z,3.50
2017-11-27T02:38:19.827Z,3.50
2017-11-27T02:40:47.809Z,3.50
2017-11-27T02:43:15.841Z,3.50
2017-11-27T02:45:43.834Z,3.50
2017-11-27T02:48:11.815Z,3.50
2017-11-27T02:50:39.852Z,3.50
2017-11-27T02:53:07.831Z,3.50
2017-11-27T02:55:37.319Z,3.50
2017-11-27T02:58:05.438Z,3.50
2017-11-27T03:00:33.420Z,3.40
2017-11-27T03:03:01.407Z,3.50
2017-11-27T03:05:29.423Z,3.50
2017-11-27T03:07:57.404Z,3.50
2017-11-27T03:10:25.397Z,3.40
2017-11-27T03:12:53.432Z,3.40
2017-11-27T03:15:21.450Z,3.40
2017-11-27T03:17:49.430Z,3.40
2017-11-27T03:20:17.458Z,3.50
2017-11-27T03:22:45.449Z,3.50
2017-11-27T03:25:13.448Z,3.40
2017-11-27T03:27:41.457Z,3.40
2017-11-27T03:30:09.439Z,3.40
2017-11-27T03:32:38.187Z,3.50
2017-11-27T03:35:06.208Z,3.50
2017-11-27T03:37:34.966Z,3.50
2017-11-27T03:40:02.950Z,3.50
2017-11-27T03:42:30.965Z,3.60
2017-11-27T03:44:59.722Z,3.50
2017-11-27T03:47:27.705Z,3.50
2017-11-27T03:49:55.753Z,3.60
2017-11-27T03:52:24.514Z,3.50
2017-11-27T03:54:52.518Z,3.40
2017-11-27T03:57:20.550Z,3.50
2017-11-27T03:59:48.533Z,3.50
2017-11-27T04:02:16.514Z,3.60
2017-11-27T04:04:44.521Z,3.60
2017-11-27T04:07:12.527Z,3.60
2017-11-27T04:09:40.510Z,3.60
2017-11-27T04:12:08.530Z,3.70
2017-11-27T04:14:36.509Z,3.60
2017-11-27T04:17:04.488Z,3.60
2017-11-27T04:19:32.514Z,3.60
2017-11-27T04:22:00.493Z,3.70
2017-11-27T04:24:28.473Z,3.70
2017-11-27T04:26:56.502Z,3.70
2017-11-27T04:29:25.258Z,3.60
2017-11-27T04:31:53.240Z,3.60
2017-11-27T04:34:21.257Z,3.70
2017-11-27T04:36:50.018Z,3.70
2017-11-27T04:39:17.995Z,3.70
2017-11-27T04:41:46.013Z,3.70
2017-11-27T04:44:13.995Z,3.70
2017-11-27T04:46:41.981Z,3.60
2017-11-27T04:49:09.994Z,3.60
2017-11-27T04:51:37.977Z,3.70
2017-11-27T04:54:05.954Z,3.60
2017-11-27T04:56:33.966Z,3.60
2017-11-27T04:59:01.952Z,3.60
2017-11-27T05:01:29.935Z,3.50
2017-11-27T05:03:57.941Z,3.50
2017-11-27T05:06:25.930Z,3.60
2017-11-27T05:08:53.915Z,3.60
2017-11-27T05:11:21.930Z,3.50
2017-11-27T05:13:49.920Z,3.50
2017-11-27T05:16:17.897Z,3.40
2017-11-27T05:18:45.910Z,3.50
2017-11-27T05:21:13.894Z,3.40
2017-11-27T05:23:41.873Z,3.40
2017-11-27T05:26:09.889Z,3.40
2017-11-27T05:28:37.874Z,3.40
2017-11-27T05:31:05.861Z,3.30
2017-11-27T05:33:33.873Z,3.40
2017-11-27T05:36:01.854Z,3.30
2017-11-27T05:38:29.845Z,3.30
2017-11-27T05:40:57.998Z,3.30
2017-11-27T05:43:25.985Z,3.30
2017-11-27T05:45:54.738Z,3.30
2017-11-27T05:48:22.760Z,3.20
2017-11-27T05:50:51.530Z,3.20
2017-11-27T05:53:19.517Z,3.10
2017-11-27T05:55:48.257Z,3.20
2017-11-27T05:58:17.006Z,3.30
2017-11-27T06:00:44.986Z,3.20
2017-11-27T06:03:12.990Z,3.30
2017-11-27T06:05:42.481Z,3.30
2017-11-27T06:08:10.470Z,3.30
2017-11-27T06:10:38.507Z,3.30
2017-11-27T06:13:07.254Z,3.30
2017-11-27T06:15:35.238Z,3.20
2017-11-27T06:18:03.271Z,3.30
2017-11-27T06:20:32.025Z,3.30
2017-11-27T06:22:59.993Z,3.20
2017-11-27T06:25:28.005Z,3.30
2017-11-27T06:27:55.995Z,3.30
2017-11-27T06:30:23.982Z,3.40
2017-11-27T06:32:52.085Z,3.40
2017-11-27T06:35:20.847Z,3.40
2017-11-27T06:37:48.824Z,3.30
2017-11-27T06:40:16.866Z,3.40
2017-11-27T06:42:44.851Z,3.30
2017-11-27T06:45:12.835Z,3.40
2017-11-27T06:47:40.867Z,3.40
2017-11-27T06:50:08.850Z,3.40
2017-11-27T06:52:36.825Z,3.30
2017-11-27T06:55:04.855Z,3.40
2017-11-27T06:57:33.593Z,3.40
2017-11-27T07:00:01.578Z,3.30
2017-11-27T07:02:29.602Z,3.30
2017-11-27T07:04:58.352Z,3.40
2017-11-27T07:07:26.348Z,3.30
2017-11-27T07:09:54.375Z,3.30
2017-11-27T07:12:23.137Z,3.20
2017-11-27T07:14:51.135Z,3.20
2017-11-27T07:17:19.142Z,3.20
2017-11-27T07:19:47.888Z,3.30
2017-11-27T07:22:15.870Z,3.20
2017-11-27T07:24:43.890Z,3.30
2017-11-27T07:27:11.873Z,3.40
2017-11-27T07:29:39.854Z,3.40
2017-11-27T07:32:07.887Z,3.40
2017-11-27T07:34:35.867Z,3.40
2017-11-27T07:37:03.845Z,3.40
2017-11-27T07:39:37.603Z,3.50
2017-11-27T07:42:05.588Z,3.50
2017-11-27T07:44:33.566Z,3.50
2017-11-27T07:47:01.585Z,3.60
2017-11-27T07:49:30.335Z,3.70
2017-11-27T07:51:58.314Z,3.60
2017-11-27T07:54:26.443Z,3.70
2017-11-27T07:56:55.198Z,3.80
2017-11-27T07:59:23.181Z,3.70
2017-11-27T08:01:51.206Z,3.80
2017-11-27T08:04:19.954Z,3.90
2017-11-27T08:06:47.938Z,3.90
2017-11-27T08:09:16.165Z,4.00
2017-11-27T08:11:44.154Z,4.10
2017-11-27T08:14:12.133Z,4.10
2017-11-27T08:16:40.150Z,4.10
2017-11-27T08:19:08.125Z,4.10
2017-11-27T08:21:36.117Z,4.20
2017-11-27T08:24:04.577Z,4.10
2017-11-27T08:26:32.552Z,4.00
2017-11-27T08:29:00.540Z,3.90
2017-11-27T08:31:28.561Z,3.90
2017-11-27T08:33:56.553Z,4.50
2017-11-27T08:36:24.538Z,3.70
2017-11-27T08:38:52.555Z,3.70
2017-11-27T08:41:20.541Z,3.70
2017-11-27T08:43:48.518Z,3.70
2017-11-27T08:46:16.534Z,3.70
2017-11-27T08:48:45.299Z,3.70
2017-11-27T08:51:13.274Z,3.70
2017-11-27T08:53:42.910Z,3.80
2017-11-27T08:56:10.952Z,3.70
2017-11-27T08:58:38.906Z,3.70
2017-11-27T09:01:07.689Z,3.80
2017-11-27T09:03:36.451Z,3.80
2017-11-27T09:06:04.445Z,3.80
2017-11-27T09:08:32.438Z,3.80
2017-11-27T09:11:00.414Z,3.80
2017-11-27T09:13:28.409Z,3.80
2017-11-27T09:15:56.431Z,3.90
2017-11-27T09:18:24.437Z,4.00
2017-11-27T09:20:52.430Z,4.00
2017-11-27T09:23:20.468Z,4.00
2017-11-27T09:25:49.217Z,4.00
2017-11-27T09:28:17.198Z,4.00
2017-11-27T09:30:45.213Z,4.10
2017-11-27T09:33:13.212Z,4.20
2017-11-27T09:35:41.953Z,4.20
2017-11-27T09:38:09.983Z,4.20
2017-11-27T09:40:38.738Z,4.30
2017-11-27T09:43:06.726Z,4.20
2017-11-27T09:45:34.745Z,4.30
2017-11-27T09:48:02.726Z,4.20
2017-11-27T09:50:30.863Z,4.20
2017-11-27T09:52:58.850Z,4.20
2017-11-27T09:55:26.838Z,4.20
2017-11-27T09:57:54.822Z,4.20
2017-11-27T10:00:22.846Z,4.20
2017-11-27T10:02:51.995Z,4.30
2017-11-27T10:05:19.971Z,4.30
2017-11-27T10:07:47.969Z,4.30
2017-11-27T10:10:15.970Z,4.40
2017-11-27T10:12:44.038Z,4.50
2017-11-27T10:15:12.860Z,4.60
2017-11-27T10:17:40.845Z,4.50
2017-11-27T10:20:08.829Z,4.70
2017-11-27T10:22:36.877Z,4.70
2017-11-27T10:25:04.859Z,4.80
2017-11-27T10:27:32.838Z,4.80
2017-11-27T10:30:00.850Z,4.60
2017-11-27T10:32:28.829Z,4.60
2017-11-27T10:34:56.834Z,4.80
2017-11-27T10:37:24.861Z,5.20
2017-11-27T10:39:52.845Z,5.40
2017-11-27T10:42:20.841Z,5.60
2017-11-27T10:44:48.865Z,5.70
2017-11-27T10:47:16.843Z,5.70
2017-11-27T10:49:44.817Z,5.60
2017-11-27T10:52:14.358Z,5.70
2017-11-27T10:54:43.121Z,5.70
2017-11-27T10:57:11.109Z,5.70
2017-11-27T10:59:39.122Z,5.70
2017-11-27T11:02:07.098Z,5.50
2017-11-27T11:04:35.085Z,5.40
2017-11-27T11:07:03.101Z,5.30
2017-11-27T11:09:31.092Z,5.30
2017-11-27T11:11:59.086Z,5.30
2017-11-27T11:14:27.145Z,5.40
2017-11-27T11:16:55.147Z,5.40
2017-11-27T11:19:23.137Z,5.30
2017-11-27T11:21:51.157Z,5.20
2017-11-27T11:24:19.141Z,5.20
2017-11-27T11:26:47.151Z,5.20
2017-11-27T11:29:15.930Z,5.30
2017-11-27T11:31:43.926Z,5.30
2017-11-27T11:34:12.670Z,5.30
2017-11-27T11:36:40.679Z,5.30
2017-11-27T11:39:08.660Z,5.30
2017-11-27T11:41:36.641Z,5.40
2017-11-27T11:44:06.157Z,5.40
2017-11-27T11:46:34.137Z,5.40
2017-11-27T11:49:02.117Z,5.40
2017-11-27T11:51:30.154Z,5.30
2017-11-27T11:53:58.160Z,5.20
2017-11-27T11:56:26.142Z,5.20
2017-11-27T11:58:54.166Z,5.20
2017-11-27T12:01:22.216Z,5.20
2017-11-27T12:03:50.930Z,5.10
2017-11-27T12:06:18.937Z,5.10
2017-11-27T12:08:46.922Z,5.10
2017-11-27T12:11:15.283Z,5.10
2017-11-27T12:13:43.294Z,5.20
2017-11-27T12:16:12.041Z,5.20
2017-11-27T12:18:40.038Z,5.20
2017-11-27T12:21:08.046Z,5.20
2017-11-27T12:23:36.038Z,5.20
2017-11-27T12:26:04.010Z,5.40
2017-11-27T12:28:32.066Z,5.50
2017-11-27T12:31:00.050Z,5.60
2017-11-27T12:33:28.030Z,5.60
2017-11-27T12:35:56.053Z,5.70
2017-11-27T12:38:24.066Z,5.60
2017-11-27T12:40:52.082Z,5.50
2017-11-27T12:43:20.102Z,5.50
2017-11-27T12:45:48.849Z,5.50
2017-11-27T12:48:16.834Z,5.50
2017-11-27T12:50:44.842Z,5.60
2017-11-27T12:53:12.826Z,5.60
2017-11-27T12:55:40.813Z,5.50
2017-11-27T12:58:08.822Z,5.50
2017-11-27T13:00:37.586Z,5.10
2017-11-27T13:03:05.565Z,5.10
2017-11-27T13:05:33.594Z,5.10
2017-11-27T13:08:02.347Z,5.10
2017-11-27T13:10:30.326Z,5.00
2017-11-27T13:12:58.347Z,5.00
2017-11-27T13:15:27.096Z,5.00
2017-11-27T13:17:55.102Z,4.90
2017-11-27T13:20:23.132Z,5.00
2017-11-27T13:22:51.889Z,4.90
2017-11-27T13:25:19.874Z,4.90
2017-11-27T13:27:47.910Z,4.90
2017-11-27T13:30:15.881Z,4.90
2017-11-27T13:32:43.869Z,4.90
2017-11-27T13:35:11.874Z,4.90
2017-11-27T13:37:39.859Z,4.90
2017-11-27T13:40:07.842Z,4.80
2017-11-27T13:42:35.857Z,4.80
2017-11-27T13:45:03.838Z,4.80
2017-11-27T13:47:31.817Z,4.70
2017-11-27T13:49:59.846Z,4.70
2017-11-27T13:52:27.837Z,4.70
2017-11-27T13:54:55.817Z,4.60
2017-11-27T13:57:23.838Z,4.60
2017-11-27T13:59:51.858Z,4.60
2017-11-27T14:02:21.197Z,4.60
2017-11-27T14:04:49.274Z,4.50
2017-11-27T14:07:17.258Z,4.60
2017-11-27T14:09:45.246Z,4.50
2017-11-27T14:12:13.361Z,4.50
2017-11-27T14:14:41.941Z,4.50
2017-11-27T14:17:09.921Z,4.50
2017-11-27T14:19:38.053Z,4.40
2017-11-27T14:22:06.038Z,4.40
2017-11-27T14:24:34.021Z,4.50
2017-11-27T14:27:02.039Z,4.50
2017-11-27T14:29:30.021Z,4.40
2017-11-27T14:31:58.007Z,4.40
2017-11-27T14:34:26.020Z,4.40
2017-11-27T14:36:54.005Z,4.30
2017-11-27T14:39:22.006Z,4.30
2017-11-27T14:41:50.023Z,4.20
2017-11-27T14:44:18.054Z,4.20
2017-11-27T14:46:46.029Z,4.20
2017-11-27T14:49:14.044Z,4.20
2017-11-27T14:51:42.050Z,4.20
2017-11-27T14:54:10.832Z,4.20
2017-11-27T14:56:38.822Z,4.10
2017-11-27T14:59:06.825Z,4.20
2017-11-27T15:01:35.574Z,4.20
2017-11-27T15:04:03.586Z,4.10
2017-11-27T15:06:32.346Z,4.10
2017-11-27T15:09:00.328Z,4.10
2017-11-27T15:11:28.333Z,4.10
2017-11-27T15:13:57.821Z,4.00
2017-11-27T15:16:25.810Z,4.00
2017-11-27T15:18:53.827Z,4.00
2017-11-27T15:21:21.806Z,4.00
2017-11-27T15:23:49.791Z,4.10
2017-11-27T15:26:17.822Z,3.90
2017-11-27T15:28:45.813Z,4.00
2017-11-27T15:31:15.096Z,4.00
2017-11-27T15:33:43.938Z,4.00
2017-11-27T15:36:11.930Z,3.90
2017-11-27T15:38:39.914Z,4.00
2017-11-27T15:41:07.938Z,4.00
2017-11-27T15:43:36.679Z,4.00
2017-11-27T15:46:04.662Z,4.00
2017-11-27T15:48:32.698Z,4.00
2017-11-27T15:51:01.446Z,4.10
2017-11-27T15:53:29.440Z,4.00
2017-11-27T15:55:57.655Z,4.10
2017-11-27T15:58:25.645Z,4.10
2017-11-27T16:00:54.397Z,4.20
2017-11-27T16:03:22.426Z,4.10
2017-11-27T16:05:51.184Z,4.10
2017-11-27T16:08:19.165Z,4.10
2017-11-27T16:10:47.196Z,4.20
2017-11-27T16:13:15.198Z,4.20
2017-11-27T16:15:43.177Z,4.20
2017-11-27T16:18:11.201Z,4.30
2017-11-27T16:20:39.173Z,4.20
2017-11-27T16:23:07.154Z,4.30
2017-11-27T16:25:39.564Z,4.30
2017-11-27T16:28:18.614Z,4.40
2017-11-27T16:30:47.454Z,4.40
2017-11-27T16:33:15.439Z,4.40
2017-11-27T16:35:43.423Z,4.40
2017-11-27T16:38:11.437Z,4.40
2017-11-27T16:40:39.426Z,4.50
2017-11-27T16:43:07.435Z,4.50
2017-11-27T16:45:35.482Z,4.50
2017-11-27T16:48:03.462Z,4.50
2017-11-27T16:50:31.471Z,4.60
2017-11-27T16:52:59.474Z,4.50
2017-11-27T16:55:27.451Z,4.60
2017-11-27T16:57:55.464Z,4.60
2017-11-27T17:00:24.240Z,4.60
2017-11-27T17:02:52.238Z,4.50
2017-11-27T17:05:21.005Z,4.60
2017-11-27T17:07:49.035Z,4.60
2017-11-27T17:10:17.014Z,4.60
2017-11-27T17:12:44.994Z,4.50
2017-11-27T17:15:13.523Z,4.60
2017-11-27T17:17:41.490Z,4.70
2017-11-27T17:20:09.478Z,4.70
2017-11-27T17:22:37.499Z,4.60
2017-11-27T17:25:05.494Z,4.70
2017-11-27T17:27:33.478Z,4.70
2017-11-27T17:30:01.504Z,4.70
2017-11-27T17:32:29.490Z,4.50
2017-11-27T17:34:57.488Z,4.70
2017-11-27T17:37:25.523Z,4.70
2017-11-27T17:39:54.274Z,4.70
2017-11-27T17:42:22.266Z,4.70
2017-11-27T17:44:51.516Z,4.70
2017-11-27T17:47:20.280Z,4.70
2017-11-27T17:49:48.257Z,4.60
2017-11-27T17:52:16.278Z,4.70
2017-11-27T17:54:45.025Z,4.70
2017-11-27T17:57:13.014Z,4.70
2017-11-27T17:59:41.187Z,4.70
2017-11-27T18:02:09.143Z,4.70
2017-11-27T18:04:37.125Z,4.70
2017-11-27T18:07:05.158Z,4.80
2017-11-27T18:09:33.169Z,4.70
2017-11-27T18:12:01.919Z,4.70
2017-11-27T18:14:29.961Z,4.60
2017-11-27T18:16:58.740Z,4.60
2017-11-27T18:19:26.708Z,4.60
2017-11-27T18:21:54.714Z,4.60
2017-11-27T18:24:23.490Z,4.70
2017-11-27T18:26:52.319Z,4.60
2017-11-27T18:29:21.115Z,4.60
2017-11-27T18:31:49.098Z,4.60
2017-11-27T18:34:17.097Z,4.60
2017-11-27T18:36:45.970Z,4.70
2017-11-27T18:39:13.936Z,4.60
2017-11-27T18:41:41.926Z,4.60
2017-11-27T18:44:09.934Z,4.60
2017-11-27T18:46:37.941Z,4.60
2017-11-27T18:49:06.674Z,4.60
2017-11-27T18:51:34.686Z,4.60
2017-11-27T18:54:04.170Z,4.60
2017-11-27T18:56:32.162Z,4.60
2017-11-27T18:59:00.201Z,4.70
2017-11-27T19:01:28.970Z,4.70
2017-11-27T19:03:56.942Z,4.60
2017-11-27T19:06:24.964Z,4.60
2017-11-27T19:08:52.987Z,4.70
2017-11-27T19:11:21.040Z,4.60
2017-11-27T19:13:49.087Z,4.70
2017-11-27T19:16:17.065Z,4.70
2017-11-27T19:18:45.050Z,4.70
2017-11-27T19:21:13.242Z,4.70
2017-11-27T19:23:41.222Z,4.70
2017-11-27T19:26:09.230Z,4.70
2017-11-27T19:28:38.026Z,4.60
2017-11-27T19:31:06.780Z,4.60
2017-11-27T19:33:34.762Z,4.60
2017-11-27T19:36:02.849Z,4.70
2017-11-27T19:38:30.842Z,4.60
2017-11-27T19:40:58.879Z,4.70
2017-11-27T19:43:27.064Z,4.70
2017-11-27T19:45:55.054Z,4.70
2017-11-27T19:48:23.038Z,4.70
2017-11-27T19:50:51.066Z,4.70
2017-11-27T19:53:19.059Z,4.70
2017-11-27T19:55:47.479Z,4.80
2017-11-27T19:58:15.488Z,4.70
2017-11-27T20:00:43.517Z,4.70
2017-11-27T20:03:11.505Z,4.70
2017-11-27T20:05:39.514Z,4.70
2017-11-27T20:08:07.496Z,4.70
2017-11-27T20:10:35.474Z,4.70
2017-11-27T20:13:03.550Z,4.70
2017-11-27T20:15:31.566Z,4.60
2017-11-27T20:17:59.550Z,4.70
2017-11-27T20:20:27.570Z,4.60
2017-11-27T20:22:55.571Z,4.60
2017-11-27T20:25:24.349Z,4.60
2017-11-27T20:27:52.391Z,4.60
2017-11-27T20:30:20.391Z,4.60
2017-11-27T20:32:48.395Z,4.60
2017-11-27T20:35:16.402Z,4.60
2017-11-27T20:37:45.167Z,4.60
2017-11-27T20:40:13.185Z,4.50
2017-11-27T20:42:41.202Z,4.50
2017-11-27T20:45:09.186Z,4.50
2017-11-27T20:47:37.174Z,4.50
2017-11-27T20:50:05.315Z,4.50
2017-11-27T20:52:34.061Z,4.50
2017-11-27T20:55:02.045Z,4.50
2017-11-27T20:57:30.074Z,4.50
2017-11-27T20:59:58.055Z,4.50
2017-11-27T21:02:26.038Z,4.50
2017-11-27T21:04:54.229Z,4.50
2017-11-27T21:07:22.985Z,4.50
2017-11-27T21:09:50.961Z,4.40
2017-11-27T21:12:18.990Z,4.50
2017-11-27T21:14:46.970Z,4.50
2017-11-27T21:17:14.967Z,4.50
2017-11-27T21:19:42.970Z,4.50
2017-11-27T21:22:10.948Z,4.50
2017-11-27T21:24:38.937Z,4.50
2017-11-27T21:27:06.963Z,4.50
2017-11-27T21:29:34.937Z,4.40
2017-11-27T21:32:02.951Z,4.40
2017-11-27T21:34:31.133Z,4.40
2017-11-27T21:36:59.124Z,4.40
2017-11-27T21:39:27.102Z,4.50
2017-11-27T21:41:56.669Z,4.40
2017-11-27T21:44:24.650Z,4.40
2017-11-27T21:46:52.654Z,4.50
2017-11-27T21:49:20.886Z,4.50
2017-11-27T21:51:49.638Z,4.50
2017-11-27T21:54:17.621Z,4.40
2017-11-27T21:56:45.649Z,4.50
2017-11-27T21:59:14.402Z,4.50
2017-11-27T22:01:42.381Z,4.50
2017-11-27T22:04:10.394Z,4.50
2017-11-27T22:06:38.395Z,4.50
2017-11-27T22:09:07.150Z,4.50
2017-11-27T22:11:35.270Z,4.50
2017-11-27T22:14:03.281Z,4.50
2017-11-27T22:16:31.282Z,4.50
2017-11-27T22:18:59.421Z,4.50
2017-11-27T22:21:27.415Z,4.50
2017-11-27T22:23:55.394Z,4.50
2017-11-27T22:26:24.178Z,4.50
2017-11-27T22:28:52.170Z,4.50
2017-11-27T22:31:20.163Z,4.50
2017-11-27T22:33:48.196Z,4.50
2017-11-27T22:36:16.162Z,4.50
2017-11-27T22:38:44.149Z,4.50
2017-11-27T22:41:12.172Z,4.50
2017-11-27T22:43:40.152Z,4.50
2017-11-27T22:46:08.133Z,4.50
2017-11-27T22:48:36.135Z,4.50
2017-11-27T22:51:04.887Z,4.50
2017-11-27T22:53:32.880Z,4.50
2017-11-27T22:56:00.998Z,4.60
2017-11-27T22:58:28.990Z,4.50
2017-11-27T23:00:57.738Z,4.60
2017-11-27T23:03:25.770Z,4.50
2017-11-27T23:05:54.522Z,4.60
2017-11-27T23:08:22.510Z,4.60
2017-11-27T23:10:50.530Z,4.60
2017-11-27T23:13:19.279Z,4.50
2017-11-27T23:15:47.734Z,4.50
2017-11-27T23:18:16.514Z,4.60
2017-11-27T23:20:44.505Z,4.60
2017-11-27T23:23:12.483Z,4.50
2017-11-27T23:25:40.497Z,4.50
2017-11-27T23:28:08.490Z,4.60
2017-11-27T23:30:36.470Z,4.60
2017-11-27T23:33:04.492Z,4.60
2017-11-27T23:35:32.476Z,4.60
2017-11-27T23:38:00.465Z,4.60
2017-11-27T23:40:28.494Z,4.70
2017-11-27T23:42:56.474Z,4.70
2017-11-27T23:45:24.480Z,4.70
2017-11-27T23:47:52.622Z,4.60
2017-11-27T23:50:21.372Z,4.70
2017-11-27T23:52:49.361Z,4.70
2017-11-27T23:55:17.366Z,4.70
2017-11-27T23:57:45.353Z,4.70
